sensor_id;sensor_type;location;lat;lon;timestamp;P1;durP1;ratioP1;P2;durP2;ratioP2
77078;SDS011;66004;55.096;38.760;2023-06-22T00:00:58;13.68;;;6.78;;
77078;SDS011;66004;55.096;38.760;2023-06-22T00:03:24;12.32;;;6.68;;
77078;SDS011;66004;55.096;38.760;2023-06-22T00:05:50;21.50;;;9.13;;
77078;SDS011;66004;55.096;38.760;2023-06-22T00:08:17;12.55;;;7.28;;
77078;SDS011;66004;55.096;38.760;2023-06-22T00:10:43;11.73;;;5.97;;
77078;SDS011;66004;55.096;38.760;2023-06-22T00:13:10;13.75;;;5.95;;
77078;SDS011;66004;55.096;38.760;2023-06-22T00:15:36;14.85;;;5.78;;
77078;SDS011;66004;55.096;38.760;2023-06-22T00:18:03;7.63;;;4.63;;
77078;SDS011;66004;55.096;38.760;2023-06-22T00:20:29;8.00;;;4.53;;
77078;SDS011;66004;55.096;38.760;2023-06-22T00:22:55;9.60;;;4.95;;
77078;SDS011;66004;55.096;38.760;2023-06-22T00:25:22;8.63;;;4.93;;
77078;SDS011;66004;55.096;38.760;2023-06-22T00:27:48;11.98;;;5.30;;
77078;SDS011;66004;55.096;38.760;2023-06-22T00:30:15;9.18;;;4.82;;
77078;SDS011;66004;55.096;38.760;2023-06-22T00:32:41;8.40;;;4.53;;
77078;SDS011;66004;55.096;38.760;2023-06-22T00:35:07;7.03;;;4.80;;
77078;SDS011;66004;55.096;38.760;2023-06-22T00:37:33;9.07;;;5.07;;
77078;SDS011;66004;55.096;38.760;2023-06-22T00:40:00;8.25;;;4.97;;
77078;SDS011;66004;55.096;38.760;2023-06-22T00:42:26;7.38;;;4.90;;
77078;SDS011;66004;55.096;38.760;2023-06-22T00:44:52;7.38;;;4.72;;
77078;SDS011;66004;55.096;38.760;2023-06-22T00:47:17;8.35;;;4.88;;
77078;SDS011;66004;55.096;38.760;2023-06-22T00:49:43;8.13;;;4.70;;
77078;SDS011;66004;55.096;38.760;2023-06-22T00:52:14;8.27;;;5.22;;
77078;SDS011;66004;55.096;38.760;2023-06-22T00:54:48;7.50;;;5.03;;
77078;SDS011;66004;55.096;38.760;2023-06-22T00:57:15;12.00;;;5.30;;
77078;SDS011;66004;55.096;38.760;2023-06-22T00:59:44;8.80;;;4.18;;
77078;SDS011;66004;55.096;38.760;2023-06-22T01:02:10;10.18;;;4.53;;
77078;SDS011;66004;55.096;38.760;2023-06-22T01:04:36;10.40;;;4.93;;
77078;SDS011;66004;55.096;38.760;2023-06-22T01:09:49;9.85;;;5.88;;
77078;SDS011;66004;55.096;38.760;2023-06-22T01:12:24;9.85;;;4.70;;
77078;SDS011;66004;55.096;38.760;2023-06-22T01:14:55;13.38;;;5.25;;
77078;SDS011;66004;55.096;38.760;2023-06-22T01:17:27;11.07;;;5.38;;
77078;SDS011;66004;55.096;38.760;2023-06-22T01:19:56;9.93;;;5.20;;
77078;SDS011;66004;55.096;38.760;2023-06-22T01:22:24;11.85;;;5.18;;
77078;SDS011;66004;55.096;38.760;2023-06-22T01:30:18;9.48;;;5.22;;
77078;SDS011;66004;55.096;38.760;2023-06-22T01:32:44;8.90;;;5.43;;
77078;SDS011;66004;55.096;38.760;2023-06-22T01:35:10;9.57;;;5.13;;
77078;SDS011;66004;55.096;38.760;2023-06-22T01:37:37;8.50;;;5.28;;
77078;SDS011;66004;55.096;38.760;2023-06-22T01:40:04;10.75;;;5.07;;
77078;SDS011;66004;55.096;38.760;2023-06-22T01:42:31;15.43;;;5.50;;
77078;SDS011;66004;55.096;38.760;2023-06-22T01:44:57;11.10;;;5.32;;
77078;SDS011;66004;55.096;38.760;2023-06-22T01:47:24;10.75;;;6.00;;
77078;SDS011;66004;55.096;38.760;2023-06-22T01:49:50;12.00;;;5.95;;
77078;SDS011;66004;55.096;38.760;2023-06-22T01:52:19;10.27;;;5.28;;
77078;SDS011;66004;55.096;38.760;2023-06-22T01:54:46;8.93;;;5.20;;
77078;SDS011;66004;55.096;38.760;2023-06-22T01:57:12;9.55;;;5.35;;
77078;SDS011;66004;55.096;38.760;2023-06-22T01:59:44;9.82;;;4.90;;
77078;SDS011;66004;55.096;38.760;2023-06-22T02:02:12;10.95;;;5.22;;
77078;SDS011;66004;55.096;38.760;2023-06-22T02:04:44;8.20;;;4.70;;
77078;SDS011;66004;55.096;38.760;2023-06-22T02:07:13;8.63;;;6.13;;
77078;SDS011;66004;55.096;38.760;2023-06-22T02:09:45;13.48;;;5.50;;
77078;SDS011;66004;55.096;38.760;2023-06-22T02:12:14;11.30;;;6.10;;
77078;SDS011;66004;55.096;38.760;2023-06-22T02:14:43;8.82;;;4.78;;
77078;SDS011;66004;55.096;38.760;2023-06-22T02:17:11;10.68;;;5.78;;
77078;SDS011;66004;55.096;38.760;2023-06-22T02:19:37;9.85;;;5.70;;
77078;SDS011;66004;55.096;38.760;2023-06-22T02:22:04;12.07;;;5.32;;
77078;SDS011;66004;55.096;38.760;2023-06-22T02:24:29;11.55;;;6.15;;
77078;SDS011;66004;55.096;38.760;2023-06-22T02:27:00;10.95;;;5.70;;
77078;SDS011;66004;55.096;38.760;2023-06-22T02:29:27;11.65;;;5.72;;
77078;SDS011;66004;55.096;38.760;2023-06-22T02:31:53;9.52;;;5.32;;
77078;SDS011;66004;55.096;38.760;2023-06-22T02:34:19;12.07;;;5.85;;
77078;SDS011;66004;55.096;38.760;2023-06-22T02:36:48;10.30;;;5.45;;
77078;SDS011;66004;55.096;38.760;2023-06-22T02:39:23;12.73;;;5.93;;
77078;SDS011;66004;55.096;38.760;2023-06-22T02:41:50;11.02;;;5.78;;
77078;SDS011;66004;55.096;38.760;2023-06-22T02:44:16;10.07;;;5.50;;
77078;SDS011;66004;55.096;38.760;2023-06-22T02:46:42;10.43;;;5.60;;
77078;SDS011;66004;55.096;38.760;2023-06-22T02:49:09;11.05;;;5.38;;
77078;SDS011;66004;55.096;38.760;2023-06-22T02:51:35;11.48;;;5.57;;
77078;SDS011;66004;55.096;38.760;2023-06-22T02:54:04;11.02;;;5.32;;
77078;SDS011;66004;55.096;38.760;2023-06-22T02:56:30;10.20;;;5.85;;
77078;SDS011;66004;55.096;38.760;2023-06-22T02:58:56;10.23;;;6.00;;
77078;SDS011;66004;55.096;38.760;2023-06-22T03:01:26;9.85;;;5.63;;
77078;SDS011;66004;55.096;38.760;2023-06-22T03:03:58;11.13;;;5.53;;
77078;SDS011;66004;55.096;38.760;2023-06-22T03:06:24;10.02;;;5.60;;
77078;SDS011;66004;55.096;38.760;2023-06-22T03:08:57;10.85;;;6.18;;
77078;SDS011;66004;55.096;38.760;2023-06-22T03:11:24;15.57;;;6.30;;
77078;SDS011;66004;55.096;38.760;2023-06-22T03:13:50;14.82;;;6.10;;
77078;SDS011;66004;55.096;38.760;2023-06-22T03:16:17;11.93;;;6.18;;
77078;SDS011;66004;55.096;38.760;2023-06-22T03:18:43;12.65;;;6.55;;
77078;SDS011;66004;55.096;38.760;2023-06-22T03:21:08;14.88;;;6.20;;
77078;SDS011;66004;55.096;38.760;2023-06-22T03:23:34;12.73;;;6.78;;
77078;SDS011;66004;55.096;38.760;2023-06-22T03:25:59;14.52;;;7.00;;
77078;SDS011;66004;55.096;38.760;2023-06-22T03:28:26;17.40;;;6.68;;
77078;SDS011;66004;55.096;38.760;2023-06-22T03:30:51;16.20;;;7.38;;
77078;SDS011;66004;55.096;38.760;2023-06-22T03:33:17;26.33;;;9.45;;
77078;SDS011;66004;55.096;38.760;2023-06-22T03:35:42;24.20;;;10.70;;
77078;SDS011;66004;55.096;38.760;2023-06-22T03:38:08;24.63;;;10.27;;
77078;SDS011;66004;55.096;38.760;2023-06-22T03:40:33;27.33;;;11.32;;
77078;SDS011;66004;55.096;38.760;2023-06-22T03:42:59;27.15;;;10.90;;
77078;SDS011;66004;55.096;38.760;2023-06-22T03:45:24;31.90;;;11.15;;
77078;SDS011;66004;55.096;38.760;2023-06-22T03:47:50;37.22;;;12.25;;
77078;SDS011;66004;55.096;38.760;2023-06-22T03:50:15;25.75;;;10.52;;
77078;SDS011;66004;55.096;38.760;2023-06-22T03:52:41;27.42;;;11.13;;
77078;SDS011;66004;55.096;38.760;2023-06-22T03:55:07;28.65;;;10.13;;
77078;SDS011;66004;55.096;38.760;2023-06-22T03:57:33;28.00;;;11.45;;
77078;SDS011;66004;55.096;38.760;2023-06-22T03:59:59;25.00;;;10.07;;
77078;SDS011;66004;55.096;38.760;2023-06-22T04:02:25;27.35;;;10.50;;
77078;SDS011;66004;55.096;38.760;2023-06-22T04:04:50;26.17;;;11.38;;
77078;SDS011;66004;55.096;38.760;2023-06-22T04:07:16;26.55;;;11.00;;
77078;SDS011;66004;55.096;38.760;2023-06-22T04:09:43;27.90;;;10.88;;
77078;SDS011;66004;55.096;38.760;2023-06-22T04:12:08;30.42;;;10.70;;
77078;SDS011;66004;55.096;38.760;2023-06-22T04:14:34;25.13;;;9.40;;
77078;SDS011;66004;55.096;38.760;2023-06-22T04:17:00;23.95;;;10.70;;
77078;SDS011;66004;55.096;38.760;2023-06-22T04:19:26;32.40;;;10.60;;
77078;SDS011;66004;55.096;38.760;2023-06-22T04:21:51;22.98;;;8.68;;
77078;SDS011;66004;55.096;38.760;2023-06-22T04:24:17;20.42;;;9.52;;
77078;SDS011;66004;55.096;38.760;2023-06-22T04:26:42;16.13;;;7.50;;
77078;SDS011;66004;55.096;38.760;2023-06-22T04:29:10;12.00;;;5.85;;
77078;SDS011;66004;55.096;38.760;2023-06-22T04:31:36;14.05;;;6.72;;
77078;SDS011;66004;55.096;38.760;2023-06-22T04:34:05;14.52;;;6.53;;
77078;SDS011;66004;55.096;38.760;2023-06-22T04:36:33;19.83;;;6.93;;
77078;SDS011;66004;55.096;38.760;2023-06-22T04:39:04;15.63;;;6.07;;
77078;SDS011;66004;55.096;38.760;2023-06-22T04:44:10;9.98;;;5.07;;
77078;SDS011;66004;55.096;38.760;2023-06-22T04:46:52;13.63;;;5.35;;
77078;SDS011;66004;55.096;38.760;2023-06-22T04:49:19;14.55;;;6.32;;
77078;SDS011;66004;55.096;38.760;2023-06-22T04:51:46;13.27;;;6.03;;
77078;SDS011;66004;55.096;38.760;2023-06-22T04:54:11;15.05;;;5.57;;
77078;SDS011;66004;55.096;38.760;2023-06-22T04:56:37;13.43;;;5.80;;
77078;SDS011;66004;55.096;38.760;2023-06-22T04:59:05;10.68;;;5.97;;
77078;SDS011;66004;55.096;38.760;2023-06-22T05:01:31;12.73;;;6.35;;
77078;SDS011;66004;55.096;38.760;2023-06-22T05:03:57;15.43;;;5.53;;
77078;SDS011;66004;55.096;38.760;2023-06-22T05:06:25;8.52;;;5.45;;
77078;SDS011;66004;55.096;38.760;2023-06-22T05:08:55;7.75;;;4.65;;
77078;SDS011;66004;55.096;38.760;2023-06-22T05:11:25;14.70;;;5.18;;
77078;SDS011;66004;55.096;38.760;2023-06-22T05:13:51;14.52;;;5.50;;
77078;SDS011;66004;55.096;38.760;2023-06-22T05:16:17;9.40;;;5.15;;
77078;SDS011;66004;55.096;38.760;2023-06-22T05:18:42;14.60;;;5.50;;
77078;SDS011;66004;55.096;38.760;2023-06-22T05:21:10;13.98;;;5.50;;
77078;SDS011;66004;55.096;38.760;2023-06-22T05:23:35;12.13;;;5.00;;
77078;SDS011;66004;55.096;38.760;2023-06-22T05:26:01;14.52;;;4.72;;
77078;SDS011;66004;55.096;38.760;2023-06-22T05:28:27;12.07;;;4.57;;
77078;SDS011;66004;55.096;38.760;2023-06-22T05:30:52;8.63;;;4.90;;
77078;SDS011;66004;55.096;38.760;2023-06-22T05:33:18;12.55;;;4.53;;
77078;SDS011;66004;55.096;38.760;2023-06-22T05:35:43;12.23;;;5.40;;
77078;SDS011;66004;55.096;38.760;2023-06-22T05:38:09;11.35;;;4.18;;
77078;SDS011;66004;55.096;38.760;2023-06-22T05:40:34;8.32;;;4.43;;
77078;SDS011;66004;55.096;38.760;2023-06-22T05:43:00;8.02;;;4.22;;
77078;SDS011;66004;55.096;38.760;2023-06-22T05:45:26;7.75;;;3.80;;
77078;SDS011;66004;55.096;38.760;2023-06-22T05:47:52;12.63;;;4.60;;
77078;SDS011;66004;55.096;38.760;2023-06-22T05:50:17;10.05;;;4.07;;
77078;SDS011;66004;55.096;38.760;2023-06-22T05:52:43;7.47;;;3.83;;
77078;SDS011;66004;55.096;38.760;2023-06-22T05:55:08;7.90;;;3.83;;
77078;SDS011;66004;55.096;38.760;2023-06-22T05:57:34;7.28;;;3.88;;
77078;SDS011;66004;55.096;38.760;2023-06-22T05:59:59;6.97;;;3.80;;
77078;SDS011;66004;55.096;38.760;2023-06-22T06:02:25;16.27;;;3.67;;
77078;SDS011;66004;55.096;38.760;2023-06-22T06:04:50;8.50;;;4.20;;
77078;SDS011;66004;55.096;38.760;2023-06-22T06:07:23;9.60;;;3.90;;
77078;SDS011;66004;55.096;38.760;2023-06-22T06:09:49;7.13;;;3.40;;
77078;SDS011;66004;55.096;38.760;2023-06-22T06:12:14;6.32;;;3.40;;
77078;SDS011;66004;55.096;38.760;2023-06-22T06:14:40;8.88;;;4.03;;
77078;SDS011;66004;55.096;38.760;2023-06-22T06:17:05;10.88;;;4.72;;
77078;SDS011;66004;55.096;38.760;2023-06-22T06:19:31;8.90;;;3.20;;
77078;SDS011;66004;55.096;38.760;2023-06-22T06:21:56;6.97;;;3.80;;
77078;SDS011;66004;55.096;38.760;2023-06-22T06:24:22;8.90;;;3.22;;
77078;SDS011;66004;55.096;38.760;2023-06-22T06:26:47;6.88;;;3.53;;
77078;SDS011;66004;55.096;38.760;2023-06-22T06:29:13;6.32;;;3.45;;
77078;SDS011;66004;55.096;38.760;2023-06-22T06:31:41;7.38;;;3.35;;
77078;SDS011;66004;55.096;38.760;2023-06-22T06:34:07;8.00;;;3.10;;
77078;SDS011;66004;55.096;38.760;2023-06-22T06:36:35;9.20;;;3.15;;
77078;SDS011;66004;55.096;38.760;2023-06-22T06:39:01;10.05;;;3.67;;
77078;SDS011;66004;55.096;38.760;2023-06-22T06:41:28;4.63;;;2.63;;
77078;SDS011;66004;55.096;38.760;2023-06-22T06:43:53;4.25;;;3.10;;
77078;SDS011;66004;55.096;38.760;2023-06-22T06:46:22;5.97;;;2.83;;
77078;SDS011;66004;55.096;38.760;2023-06-22T06:48:48;4.20;;;2.45;;
77078;SDS011;66004;55.096;38.760;2023-06-22T06:51:13;5.05;;;2.72;;
77078;SDS011;66004;55.096;38.760;2023-06-22T06:53:39;10.30;;;2.60;;
77078;SDS011;66004;55.096;38.760;2023-06-22T06:56:04;3.95;;;2.40;;
77078;SDS011;66004;55.096;38.760;2023-06-22T06:58:30;9.85;;;2.60;;
77078;SDS011;66004;55.096;38.760;2023-06-22T07:00:56;4.80;;;2.75;;
77078;SDS011;66004;55.096;38.760;2023-06-22T07:03:21;6.07;;;2.65;;
77078;SDS011;66004;55.096;38.760;2023-06-22T07:05:47;5.13;;;2.70;;
77078;SDS011;66004;55.096;38.760;2023-06-22T07:08:13;6.60;;;3.25;;
77078;SDS011;66004;55.096;38.760;2023-06-22T07:10:38;9.93;;;2.60;;
77078;SDS011;66004;55.096;38.760;2023-06-22T07:13:04;6.38;;;2.40;;
77078;SDS011;66004;55.096;38.760;2023-06-22T07:15:29;7.82;;;2.22;;
77078;SDS011;66004;55.096;38.760;2023-06-22T07:17:55;3.28;;;2.30;;
77078;SDS011;66004;55.096;38.760;2023-06-22T07:20:20;4.15;;;2.42;;
77078;SDS011;66004;55.096;38.760;2023-06-22T07:22:46;6.40;;;2.80;;
77078;SDS011;66004;55.096;38.760;2023-06-22T07:25:11;4.75;;;2.53;;
77078;SDS011;66004;55.096;38.760;2023-06-22T07:27:39;7.20;;;2.67;;
77078;SDS011;66004;55.096;38.760;2023-06-22T07:32:36;4.80;;;2.50;;
77078;SDS011;66004;55.096;38.760;2023-06-22T07:35:08;6.85;;;2.70;;
77078;SDS011;66004;55.096;38.760;2023-06-22T07:37:33;5.68;;;2.55;;
77078;SDS011;66004;55.096;38.760;2023-06-22T07:40:00;3.83;;;2.67;;
77078;SDS011;66004;55.096;38.760;2023-06-22T07:42:26;6.80;;;3.67;;
77078;SDS011;66004;55.096;38.760;2023-06-22T07:44:52;5.60;;;2.20;;
77078;SDS011;66004;55.096;38.760;2023-06-22T07:47:19;6.68;;;2.50;;
77078;SDS011;66004;55.096;38.760;2023-06-22T07:49:45;4.55;;;2.20;;
77078;SDS011;66004;55.096;38.760;2023-06-22T07:52:11;6.63;;;2.25;;
77078;SDS011;66004;55.096;38.760;2023-06-22T07:54:37;4.53;;;2.47;;
77078;SDS011;66004;55.096;38.760;2023-06-22T07:57:03;4.40;;;3.00;;
77078;SDS011;66004;55.096;38.760;2023-06-22T07:59:29;7.43;;;2.67;;
77078;SDS011;66004;55.096;38.760;2023-06-22T08:01:55;3.03;;;2.10;;
77078;SDS011;66004;55.096;38.760;2023-06-22T08:04:21;5.43;;;2.67;;
77078;SDS011;66004;55.096;38.760;2023-06-22T08:06:46;3.90;;;1.98;;
77078;SDS011;66004;55.096;38.760;2023-06-22T08:09:12;3.13;;;2.40;;
77078;SDS011;66004;55.096;38.760;2023-06-22T08:11:37;3.22;;;2.50;;
77078;SDS011;66004;55.096;38.760;2023-06-22T08:14:03;5.25;;;2.17;;
77078;SDS011;66004;55.096;38.760;2023-06-22T08:16:28;8.57;;;2.70;;
77078;SDS011;66004;55.096;38.760;2023-06-22T08:18:54;4.25;;;2.50;;
77078;SDS011;66004;55.096;38.760;2023-06-22T08:21:20;5.68;;;2.40;;
77078;SDS011;66004;55.096;38.760;2023-06-22T08:23:47;5.82;;;2.20;;
77078;SDS011;66004;55.096;38.760;2023-06-22T08:26:14;3.60;;;2.45;;
77078;SDS011;66004;55.096;38.760;2023-06-22T08:28:40;5.85;;;2.53;;
77078;SDS011;66004;55.096;38.760;2023-06-22T08:31:05;6.68;;;2.40;;
77078;SDS011;66004;55.096;38.760;2023-06-22T08:33:31;4.15;;;2.53;;
77078;SDS011;66004;55.096;38.760;2023-06-22T08:35:57;7.60;;;2.17;;
77078;SDS011;66004;55.096;38.760;2023-06-22T08:38:23;4.30;;;2.30;;
77078;SDS011;66004;55.096;38.760;2023-06-22T08:40:49;4.22;;;2.30;;
77078;SDS011;66004;55.096;38.760;2023-06-22T08:43:15;6.53;;;3.35;;
77078;SDS011;66004;55.096;38.760;2023-06-22T08:45:40;7.00;;;2.80;;
77078;SDS011;66004;55.096;38.760;2023-06-22T08:48:06;11.02;;;2.92;;
77078;SDS011;66004;55.096;38.760;2023-06-22T08:50:31;4.05;;;2.33;;
77078;SDS011;66004;55.096;38.760;2023-06-22T08:52:57;5.90;;;3.15;;
77078;SDS011;66004;55.096;38.760;2023-06-22T08:55:22;7.63;;;2.90;;
77078;SDS011;66004;55.096;38.760;2023-06-22T08:57:48;5.10;;;2.75;;
77078;SDS011;66004;55.096;38.760;2023-06-22T09:00:13;4.47;;;2.50;;
77078;SDS011;66004;55.096;38.760;2023-06-22T09:02:44;4.20;;;2.40;;
77078;SDS011;66004;55.096;38.760;2023-06-22T09:05:10;4.38;;;2.70;;
77078;SDS011;66004;55.096;38.760;2023-06-22T09:07:36;5.03;;;2.35;;
77078;SDS011;66004;55.096;38.760;2023-06-22T09:10:01;5.80;;;2.78;;
77078;SDS011;66004;55.096;38.760;2023-06-22T09:12:29;4.88;;;2.72;;
77078;SDS011;66004;55.096;38.760;2023-06-22T09:14:55;5.40;;;2.58;;
77078;SDS011;66004;55.096;38.760;2023-06-22T09:17:21;4.78;;;2.58;;
77078;SDS011;66004;55.096;38.760;2023-06-22T09:19:47;9.25;;;2.90;;
77078;SDS011;66004;55.096;38.760;2023-06-22T09:22:13;3.60;;;2.70;;
77078;SDS011;66004;55.096;38.760;2023-06-22T09:24:39;7.30;;;2.30;;
77078;SDS011;66004;55.096;38.760;2023-06-22T09:27:05;6.10;;;2.45;;
77078;SDS011;66004;55.096;38.760;2023-06-22T09:29:30;5.75;;;2.40;;
77078;SDS011;66004;55.096;38.760;2023-06-22T09:31:58;4.63;;;2.42;;
77078;SDS011;66004;55.096;38.760;2023-06-22T09:34:24;4.28;;;2.55;;
77078;SDS011;66004;55.096;38.760;2023-06-22T09:36:50;5.50;;;2.90;;
77078;SDS011;66004;55.096;38.760;2023-06-22T09:39:17;3.78;;;2.70;;
77078;SDS011;66004;55.096;38.760;2023-06-22T09:41:43;5.75;;;2.67;;
77078;SDS011;66004;55.096;38.760;2023-06-22T09:44:09;4.22;;;2.72;;
77078;SDS011;66004;55.096;38.760;2023-06-22T09:46:35;3.13;;;2.22;;
77078;SDS011;66004;55.096;38.760;2023-06-22T09:49:00;5.10;;;2.15;;
77078;SDS011;66004;55.096;38.760;2023-06-22T09:51:26;6.47;;;2.50;;
77078;SDS011;66004;55.096;38.760;2023-06-22T09:53:51;4.63;;;2.58;;
77078;SDS011;66004;55.096;38.760;2023-06-22T09:56:19;8.00;;;2.95;;
77078;SDS011;66004;55.096;38.760;2023-06-22T09:58:45;5.75;;;2.38;;
77078;SDS011;66004;55.096;38.760;2023-06-22T10:01:11;4.93;;;2.60;;
77078;SDS011;66004;55.096;38.760;2023-06-22T10:03:39;4.70;;;2.33;;
77078;SDS011;66004;55.096;38.760;2023-06-22T10:06:06;7.20;;;4.22;;
77078;SDS011;66004;55.096;38.760;2023-06-22T10:08:32;4.32;;;2.28;;
77078;SDS011;66004;55.096;38.760;2023-06-22T10:10:57;22.48;;;9.40;;
77078;SDS011;66004;55.096;38.760;2023-06-22T10:13:23;4.18;;;2.40;;
77078;SDS011;66004;55.096;38.760;2023-06-22T10:15:48;3.13;;;2.25;;
77078;SDS011;66004;55.096;38.760;2023-06-22T10:18:16;3.53;;;2.17;;
77078;SDS011;66004;55.096;38.760;2023-06-22T10:20:42;4.40;;;2.15;;
77078;SDS011;66004;55.096;38.760;2023-06-22T10:23:08;7.72;;;2.33;;
77078;SDS011;66004;55.096;38.760;2023-06-22T10:25:34;3.35;;;2.53;;
77078;SDS011;66004;55.096;38.760;2023-06-22T10:27:59;4.72;;;2.50;;
77078;SDS011;66004;55.096;38.760;2023-06-22T10:30:24;5.40;;;2.90;;
77078;SDS011;66004;55.096;38.760;2023-06-22T10:32:50;6.57;;;2.83;;
77078;SDS011;66004;55.096;38.760;2023-06-22T10:35:16;6.70;;;2.42;;
77078;SDS011;66004;55.096;38.760;2023-06-22T10:37:42;4.65;;;2.42;;
77078;SDS011;66004;55.096;38.760;2023-06-22T10:40:08;5.15;;;2.75;;
77078;SDS011;66004;55.096;38.760;2023-06-22T10:42:34;4.30;;;2.70;;
77078;SDS011;66004;55.096;38.760;2023-06-22T10:45:00;6.40;;;2.40;;
77078;SDS011;66004;55.096;38.760;2023-06-22T10:47:26;4.95;;;2.45;;
77078;SDS011;66004;55.096;38.760;2023-06-22T10:49:51;5.47;;;2.45;;
77078;SDS011;66004;55.096;38.760;2023-06-22T10:52:17;3.70;;;2.40;;
77078;SDS011;66004;55.096;38.760;2023-06-22T10:54:42;5.65;;;2.47;;
77078;SDS011;66004;55.096;38.760;2023-06-22T10:57:08;3.17;;;2.28;;
77078;SDS011;66004;55.096;38.760;2023-06-22T10:59:33;5.95;;;2.60;;
77078;SDS011;66004;55.096;38.760;2023-06-22T11:01:59;3.10;;;2.15;;
77078;SDS011;66004;55.096;38.760;2023-06-22T11:04:24;4.30;;;2.22;;
77078;SDS011;66004;55.096;38.760;2023-06-22T11:06:50;3.33;;;2.60;;
77078;SDS011;66004;55.096;38.760;2023-06-22T11:09:16;4.28;;;2.50;;
77078;SDS011;66004;55.096;38.760;2023-06-22T11:11:45;5.13;;;2.80;;
77078;SDS011;66004;55.096;38.760;2023-06-22T11:14:14;5.63;;;2.28;;
77078;SDS011;66004;55.096;38.760;2023-06-22T11:16:40;5.70;;;2.90;;
77078;SDS011;66004;55.096;38.760;2023-06-22T11:19:05;3.80;;;2.13;;
77078;SDS011;66004;55.096;38.760;2023-06-22T11:21:31;2.95;;;2.22;;
77078;SDS011;66004;55.096;38.760;2023-06-22T11:23:57;4.22;;;2.45;;
77078;SDS011;66004;55.096;38.760;2023-06-22T11:26:24;3.97;;;2.25;;
77078;SDS011;66004;55.096;38.760;2023-06-22T11:28:50;4.85;;;2.33;;
77078;SDS011;66004;55.096;38.760;2023-06-22T11:31:15;3.90;;;2.50;;
77078;SDS011;66004;55.096;38.760;2023-06-22T11:33:41;3.67;;;2.20;;
77078;SDS011;66004;55.096;38.760;2023-06-22T11:36:06;4.68;;;2.83;;
77078;SDS011;66004;55.096;38.760;2023-06-22T11:38:32;9.77;;;2.80;;
77078;SDS011;66004;55.096;38.760;2023-06-22T11:40:58;6.70;;;3.05;;
77078;SDS011;66004;55.096;38.760;2023-06-22T11:43:33;3.90;;;2.90;;
77078;SDS011;66004;55.096;38.760;2023-06-22T11:45:59;3.55;;;2.42;;
77078;SDS011;66004;55.096;38.760;2023-06-22T11:48:25;5.28;;;2.60;;
77078;SDS011;66004;55.096;38.760;2023-06-22T11:50:50;4.78;;;2.53;;
77078;SDS011;66004;55.096;38.760;2023-06-22T11:53:16;4.18;;;2.60;;
77078;SDS011;66004;55.096;38.760;2023-06-22T11:55:43;2.65;;;1.90;;
77078;SDS011;66004;55.096;38.760;2023-06-22T11:58:09;3.58;;;2.35;;
77078;SDS011;66004;55.096;38.760;2023-06-22T12:00:35;3.58;;;2.70;;
77078;SDS011;66004;55.096;38.760;2023-06-22T12:03:00;3.75;;;2.35;;
77078;SDS011;66004;55.096;38.760;2023-06-22T12:05:26;5.13;;;2.60;;
77078;SDS011;66004;55.096;38.760;2023-06-22T12:07:54;5.35;;;3.05;;
77078;SDS011;66004;55.096;38.760;2023-06-22T12:10:24;3.85;;;3.13;;
77078;SDS011;66004;55.096;38.760;2023-06-22T12:12:50;3.97;;;2.33;;
77078;SDS011;66004;55.096;38.760;2023-06-22T12:15:16;4.82;;;2.50;;
77078;SDS011;66004;55.096;38.760;2023-06-22T12:17:42;4.82;;;2.50;;
77078;SDS011;66004;55.096;38.760;2023-06-22T12:20:07;7.80;;;3.08;;
77078;SDS011;66004;55.096;38.760;2023-06-22T12:22:34;5.88;;;3.03;;
77078;SDS011;66004;55.096;38.760;2023-06-22T12:25:00;3.08;;;2.25;;
77078;SDS011;66004;55.096;38.760;2023-06-22T12:27:26;4.75;;;2.70;;
77078;SDS011;66004;55.096;38.760;2023-06-22T12:29:55;4.22;;;2.80;;
77078;SDS011;66004;55.096;38.760;2023-06-22T12:32:20;4.82;;;2.80;;
77078;SDS011;66004;55.096;38.760;2023-06-22T12:34:46;6.68;;;2.60;;
77078;SDS011;66004;55.096;38.760;2023-06-22T12:37:11;5.20;;;2.58;;
77078;SDS011;66004;55.096;38.760;2023-06-22T12:39:37;6.13;;;2.97;;
77078;SDS011;66004;55.096;38.760;2023-06-22T12:42:04;2.80;;;2.40;;
77078;SDS011;66004;55.096;38.760;2023-06-22T12:44:30;6.35;;;2.60;;
77078;SDS011;66004;55.096;38.760;2023-06-22T12:46:56;5.18;;;2.67;;
77078;SDS011;66004;55.096;38.760;2023-06-22T12:49:21;3.53;;;2.58;;
77078;SDS011;66004;55.096;38.760;2023-06-22T12:51:47;4.45;;;2.80;;
77078;SDS011;66004;55.096;38.760;2023-06-22T12:54:12;3.53;;;2.78;;
77078;SDS011;66004;55.096;38.760;2023-06-22T12:56:38;5.05;;;2.38;;
77078;SDS011;66004;55.096;38.760;2023-06-22T12:59:04;5.07;;;2.30;;
77078;SDS011;66004;55.096;38.760;2023-06-22T13:01:33;3.78;;;2.88;;
77078;SDS011;66004;55.096;38.760;2023-06-22T13:03:58;7.05;;;2.50;;
77078;SDS011;66004;55.096;38.760;2023-06-22T13:06:24;6.20;;;2.50;;
77078;SDS011;66004;55.096;38.760;2023-06-22T13:08:50;6.30;;;2.60;;
77078;SDS011;66004;55.096;38.760;2023-06-22T13:11:15;5.40;;;2.95;;
77078;SDS011;66004;55.096;38.760;2023-06-22T13:13:41;3.30;;;2.20;;
77078;SDS011;66004;55.096;38.760;2023-06-22T13:16:07;3.15;;;2.55;;
77078;SDS011;66004;55.096;38.760;2023-06-22T13:18:33;6.47;;;2.95;;
77078;SDS011;66004;55.096;38.760;2023-06-22T13:21:01;3.50;;;2.55;;
77078;SDS011;66004;55.096;38.760;2023-06-22T13:23:27;4.10;;;2.83;;
77078;SDS011;66004;55.096;38.760;2023-06-22T13:25:52;4.00;;;2.55;;
77078;SDS011;66004;55.096;38.760;2023-06-22T13:28:18;5.03;;;2.47;;
77078;SDS011;66004;55.096;38.760;2023-06-22T13:30:44;5.15;;;2.95;;
77078;SDS011;66004;55.096;38.760;2023-06-22T13:33:12;5.30;;;2.65;;
77078;SDS011;66004;55.096;38.760;2023-06-22T13:35:40;5.65;;;3.25;;
77078;SDS011;66004;55.096;38.760;2023-06-22T13:38:09;6.45;;;3.15;;
77078;SDS011;66004;55.096;38.760;2023-06-22T13:40:36;13.13;;;3.83;;
77078;SDS011;66004;55.096;38.760;2023-06-22T13:43:03;5.00;;;2.72;;
77078;SDS011;66004;55.096;38.760;2023-06-22T13:45:29;7.38;;;3.20;;
77078;SDS011;66004;55.096;38.760;2023-06-22T13:47:55;5.97;;;3.30;;
77078;SDS011;66004;55.096;38.760;2023-06-22T13:50:20;5.57;;;2.80;;
77078;SDS011;66004;55.096;38.760;2023-06-22T13:52:46;8.45;;;3.08;;
77078;SDS011;66004;55.096;38.760;2023-06-22T13:55:11;7.68;;;3.25;;
77078;SDS011;66004;55.096;38.760;2023-06-22T13:57:39;3.55;;;2.70;;
77078;SDS011;66004;55.096;38.760;2023-06-22T14:00:05;5.40;;;2.58;;
77078;SDS011;66004;55.096;38.760;2023-06-22T14:02:32;6.13;;;2.97;;
77078;SDS011;66004;55.096;38.760;2023-06-22T14:04:57;4.07;;;2.72;;
77078;SDS011;66004;55.096;38.760;2023-06-22T14:07:22;6.28;;;2.95;;
77078;SDS011;66004;55.096;38.760;2023-06-22T14:09:49;5.00;;;2.92;;
77078;SDS011;66004;55.096;38.760;2023-06-22T14:12:15;5.95;;;3.00;;
77078;SDS011;66004;55.096;38.760;2023-06-22T16:25:02;5.20;;;2.40;;
77078;SDS011;66004;55.096;38.760;2023-06-22T16:27:30;6.22;;;2.45;;
77078;SDS011;66004;55.096;38.760;2023-06-22T16:29:57;8.00;;;2.47;;
77078;SDS011;66004;55.096;38.760;2023-06-22T16:32:23;8.55;;;2.72;;
77078;SDS011;66004;55.096;38.760;2023-06-22T16:34:48;5.68;;;2.33;;
77078;SDS011;66004;55.096;38.760;2023-06-22T16:37:14;5.82;;;2.28;;
77078;SDS011;66004;55.096;38.760;2023-06-22T16:39:40;4.10;;;2.42;;
77078;SDS011;66004;55.096;38.760;2023-06-22T16:42:05;4.55;;;2.17;;
77078;SDS011;66004;55.096;38.760;2023-06-22T16:44:31;6.85;;;2.08;;
77078;SDS011;66004;55.096;38.760;2023-06-22T16:46:59;7.88;;;2.70;;
77078;SDS011;66004;55.096;38.760;2023-06-22T16:49:26;4.97;;;2.08;;